Time;durP1;ratioP1;P1;durP2;ratioP2;P2;SDS_P1;SDS_P2;PMS_P1;PMS_P2;Temp;Humidity;BMP_temperature;BMP_pressure;BME280_temperature;BME280_humidity;BME280_pressure;Samples;Min_cycle;Max_cycle;Signal;HPM_P1;HPM_P2
2022/11/10 00:02:13;;;;;;;0.95;0.73;;;19.70;61.10;;;;;;6291902;28;20043;-67
2022/11/10 00:05:14;;;;;;;0.90;0.70;;;19.70;61.30;;;;;;6291618;28;20032;-66
2022/11/10 00:08:15;;;;;;;1.02;0.75;;;19.70;61.40;;;;;;6291655;28;20045;-67
2022/11/10 00:11:15;;;;;;;1.23;0.70;;;19.70;61.20;;;;;;6291080;28;20103;-67
2022/11/10 00:17:35;;;;;;;1.15;0.60;;;19.70;61.40;;;;;;6291476;28;20395;-67
2022/11/10 00:20:36;;;;;;;1.00;0.77;;;19.70;61.10;;;;;;6291625;28;20028;-67
2022/11/10 00:23:37;;;;;;;0.60;0.50;;;19.70;61.40;;;;;;6291678;28;20029;-67
2022/11/10 00:26:37;;;;;;;1.25;0.80;;;19.70;61.20;;;;;;6291805;28;20110;-68
2022/11/10 00:29:38;;;;;;;1.75;0.95;;;19.70;61.20;;;;;;6291611;28;20021;-67
2022/11/10 00:32:38;;;;;;;0.90;0.68;;;19.70;61.30;;;;;;6291172;28;20028;-67
2022/11/10 00:35:39;;;;;;;0.52;0.50;;;19.70;61.20;;;;;;6291698;28;20017;-67
2022/11/10 00:38:39;;;;;;;1.45;0.70;;;19.70;61.40;;;;;;6291573;28;20423;-67
2022/11/10 00:41:40;;;;;;;1.45;0.70;;;19.70;61.40;;;;;;6291353;28;20021;-67
2022/11/10 00:44:41;;;;;;;1.27;0.50;;;19.70;61.40;;;;;;6291484;28;20024;-67
2022/11/10 00:47:41;;;;;;;1.17;0.60;;;19.70;61.20;;;;;;6292736;28;20411;-67
2022/11/10 00:50:42;;;;;;;0.50;0.50;;;19.70;61.40;;;;;;6295924;28;20132;-67
2022/11/10 00:53:42;;;;;;;0.82;0.47;;;19.70;61.40;;;;;;6296289;28;20040;-67
2022/11/10 00:56:43;;;;;;;0.88;0.60;;;19.70;61.40;;;;;;6295898;28;20052;-67
2022/11/10 00:59:44;;;;;;;0.98;0.60;;;19.70;61.30;;;;;;6295780;28;20453;-66
2022/11/10 01:02:44;;;;;;;1.33;0.57;;;19.70;61.40;;;;;;6295805;28;20033;-67
2022/11/10 01:05:45;;;;;;;1.35;0.95;;;19.70;61.40;;;;;;6295259;28;20025;-67
2022/11/10 01:08:46;;;;;;;0.75;0.55;;;19.70;61.30;;;;;;6295853;28;20538;-67
2022/11/10 01:11:47;;;;;;;1.38;0.50;;;19.70;61.40;;;;;;6295197;28;20074;-67
2022/11/10 01:14:47;;;;;;;2.22;0.55;;;19.70;61.40;;;;;;6295487;28;20021;-67
2022/11/10 01:17:48;;;;;;;1.05;0.60;;;19.70;61.30;;;;;;6295461;28;20039;-67
2022/11/10 01:20:52;;;;;;;0.60;0.60;;;19.70;61.30;;;;;;6295156;28;20628;-67
2022/11/10 01:23:53;;;;;;;1.90;0.70;;;19.70;61.30;;;;;;6294964;28;20111;-67
2022/11/10 01:26:53;;;;;;;0.80;0.52;;;19.70;61.40;;;;;;6293829;28;20056;-66
2022/11/10 01:29:54;;;;;;;0.43;0.40;;;19.70;61.30;;;;;;6295332;28;20099;-67
2022/11/10 01:32:55;;;;;;;0.90;0.68;;;19.60;61.30;;;;;;6295020;28;20028;-67
2022/11/10 01:35:56;;;;;;;0.85;0.57;;;19.70;61.40;;;;;;6294785;28;20210;-67
2022/11/10 01:38:56;;;;;;;0.75;0.60;;;19.70;61.40;;;;;;6295049;28;20033;-65
2022/11/10 01:41:57;;;;;;;1.30;0.60;;;19.70;61.40;;;;;;6294609;28;20074;-67
2022/11/10 01:45:19;;;;;;;0.60;0.50;;;19.70;61.20;;;;;;6294794;28;20027;-67
2022/11/10 01:48:31;;;;;;;1.00;0.57;;;19.70;61.30;;;;;;6294235;28;20156;-66
2022/11/10 01:55:29;;;;;;;1.40;0.73;;;19.70;61.40;;;;;;6294406;28;20032;-67
2022/11/10 01:58:38;;;;;;;0.98;0.60;;;19.70;61.40;;;;;;6293852;28;20021;-67
2022/11/10 02:01:39;;;;;;;1.35;0.50;;;19.70;61.30;;;;;;6294394;28;20029;-66
2022/11/10 02:04:41;;;;;;;1.38;0.55;;;19.70;61.30;;;;;;6294514;28;20032;-66
2022/11/10 02:07:42;;;;;;;1.05;0.60;;;19.70;61.40;;;;;;6294091;28;20032;-66
2022/11/10 02:10:43;;;;;;;0.93;0.55;;;19.60;61.20;;;;;;6293839;28;20046;-67
2022/11/10 02:13:44;;;;;;;0.60;0.52;;;19.70;61.30;;;;;;6294728;28;20032;-68
2022/11/10 02:16:45;;;;;;;0.80;0.50;;;19.70;61.40;;;;;;6293867;28;20029;-67
2022/11/10 02:19:45;;;;;;;0.50;0.50;;;19.70;61.20;;;;;;6294018;28;20425;-67
2022/11/10 02:22:46;;;;;;;0.95;0.60;;;19.60;61.20;;;;;;6293524;28;20078;-68
2022/11/10 02:25:47;;;;;;;0.80;0.50;;;19.70;61.30;;;;;;6293648;28;20111;-66
2022/11/10 02:28:48;;;;;;;0.68;0.60;;;19.70;61.30;;;;;;6293396;28;20029;-66
2022/11/10 02:31:48;;;;;;;0.60;0.45;;;19.70;61.20;;;;;;6293737;28;20020;-67
2022/11/10 02:34:49;;;;;;;1.02;0.50;;;19.60;61.20;;;;;;6293442;28;20107;-66
2022/11/10 02:37:50;;;;;;;0.95;0.52;;;19.60;61.20;;;;;;6293415;28;20027;-67
2022/11/10 02:40:50;;;;;;;1.00;0.60;;;19.60;61.30;;;;;;6293525;28;20100;-66
2022/11/10 02:43:52;;;;;;;0.80;0.60;;;19.60;61.20;;;;;;6293179;28;20051;-66
2022/11/10 02:46:52;;;;;;;0.50;0.50;;;19.60;61.20;;;;;;6292811;28;20094;-66
2022/11/10 02:49:53;;;;;;;0.57;0.57;;;19.60;61.20;;;;;;6293212;28;20491;-67
2022/11/10 02:52:54;;;;;;;0.63;0.52;;;19.60;61.20;;;;;;6292821;28;20060;-67
2022/11/10 02:55:54;;;;;;;0.65;0.50;;;19.60;61.20;;;;;;6293267;28;20032;-66
2022/11/10 02:58:55;;;;;;;0.80;0.50;;;19.60;61.30;;;;;;6292594;28;20056;-67
2022/11/10 03:01:56;;;;;;;1.30;0.70;;;19.60;61.20;;;;;;6293101;28;20059;-68
2022/11/10 03:04:56;;;;;;;0.73;0.60;;;19.60;61.30;;;;;;6293026;28;20024;-66
2022/11/10 03:08:02;;;;;;;0.77;0.47;;;19.60;61.20;;;;;;6292626;28;20036;-68
2022/11/10 03:11:02;;;;;;;0.70;0.40;;;19.60;61.10;;;;;;6291961;28;20113;-67
2022/11/10 03:14:03;;;;;;;0.70;0.50;;;19.70;61.30;;;;;;6292884;28;20429;-67
2022/11/10 03:17:04;;;;;;;0.52;0.50;;;19.60;61.20;;;;;;6292244;28;20025;-67
2022/11/10 03:20:05;;;;;;;0.77;0.40;;;19.60;61.20;;;;;;6292842;28;20024;-68
2022/11/10 03:23:06;;;;;;;0.40;0.40;;;19.60;61.20;;;;;;6292104;28;20120;-66
2022/11/10 03:26:07;;;;;;;0.95;0.57;;;19.60;61.20;;;;;;6292563;28;20021;-67
2022/11/10 03:29:08;;;;;;;1.13;0.60;;;19.60;61.30;;;;;;6292310;28;20037;-66
2022/11/10 03:32:08;;;;;;;0.40;0.40;;;19.60;61.30;;;;;;6292258;28;20474;-67
2022/11/10 03:35:09;;;;;;;0.88;0.55;;;19.60;61.30;;;;;;6292519;28;20062;-67
2022/11/10 03:38:10;;;;;;;1.40;0.50;;;19.60;61.30;;;;;;6291814;28;20039;-67
2022/11/10 03:41:11;;;;;;;0.43;0.40;;;19.60;61.20;;;;;;6292747;28;20070;-67
2022/11/10 03:44:11;;;;;;;0.90;0.60;;;19.60;61.20;;;;;;6292359;28;20097;-67
2022/11/10 03:47:12;;;;;;;1.08;0.40;;;19.60;61.30;;;;;;6291924;28;20082;-67
2022/11/10 03:50:13;;;;;;;1.00;0.40;;;19.60;61.20;;;;;;6291949;28;20575;-67
2022/11/10 03:53:14;;;;;;;0.50;0.40;;;19.60;61.30;;;;;;6292777;28;20047;-67
2022/11/10 03:56:15;;;;;;;1.33;0.35;;;19.60;61.30;;;;;;6292226;28;20463;-66
2022/11/10 03:59:16;;;;;;;1.02;0.43;;;19.60;61.30;;;;;;6292303;28;20062;-67
2022/11/10 04:02:16;;;;;;;1.02;0.50;;;19.60;61.20;;;;;;6292074;28;20506;-67
2022/11/10 04:18:33;;;;;;;0.45;0.45;;;19.60;61.30;;;;;;6292249;28;20032;-67
2022/11/10 04:21:34;;;;;;;1.08;0.68;;;19.60;61.30;;;;;;6292592;28;20043;-67
2022/11/10 04:24:35;;;;;;;0.60;0.40;;;19.60;61.30;;;;;;6296801;28;20048;-67
2022/11/10 04:27:37;;;;;;;0.43;0.40;;;19.60;61.20;;;;;;6296262;28;20033;-66
2022/11/10 04:30:38;;;;;;;0.70;0.43;;;19.60;61.30;;;;;;6296746;28;20016;-67
2022/11/10 04:33:40;;;;;;;0.50;0.50;;;19.60;61.30;;;;;;6296568;28;20471;-66
2022/11/10 04:36:42;;;;;;;0.60;0.40;;;19.60;61.30;;;;;;6296881;28;20024;-68
2022/11/10 04:39:43;;;;;;;0.28;0.28;;;19.60;61.20;;;;;;6296242;28;20090;-66
2022/11/10 04:42:44;;;;;;;0.45;0.40;;;19.60;61.30;;;;;;6296251;28;20025;-66
2022/11/10 04:45:44;;;;;;;0.88;0.70;;;19.60;61.30;;;;;;6296289;28;20083;-66
2022/11/10 04:48:45;;;;;;;1.30;0.50;;;19.60;61.30;;;;;;6295910;28;20505;-65
2022/11/10 04:51:45;;;;;;;0.77;0.50;;;19.60;61.30;;;;;;6295844;28;20060;-67
2022/11/10 04:54:46;;;;;;;1.17;0.55;;;19.60;61.30;;;;;;6295913;28;20372;-67
2022/11/10 04:57:47;;;;;;;1.02;0.60;;;19.60;61.20;;;;;;6295637;28;20376;-67
2022/11/10 05:00:48;;;;;;;0.82;0.40;;;19.60;61.30;;;;;;6296426;28;20052;-66
2022/11/10 05:03:50;;;;;;;0.57;0.47;;;19.60;61.30;;;;;;6295444;28;20021;-67
2022/11/10 05:06:52;;;;;;;1.20;0.52;;;19.60;61.30;;;;;;6296025;28;20047;-67
2022/11/10 05:09:53;;;;;;;0.68;0.47;;;19.60;61.40;;;;;;6295454;28;20028;-67
2022/11/10 05:12:55;;;;;;;0.47;0.40;;;19.60;61.30;;;;;;6295807;28;20077;-67
2022/11/10 05:15:56;;;;;;;0.65;0.50;;;19.60;61.30;;;;;;6295293;28;20388;-67
2022/11/10 05:18:57;;;;;;;0.80;0.57;;;19.60;61.30;;;;;;6295863;28;20037;-67
2022/11/10 05:21:57;;;;;;;0.77;0.50;;;19.60;61.20;;;;;;6295264;28;20029;-67
2022/11/10 05:24:58;;;;;;;0.75;0.50;;;19.60;61.20;;;;;;6295902;28;20064;-67
2022/11/10 05:27:58;;;;;;;0.80;0.40;;;19.60;61.20;;;;;;6294918;28;20039;-67
2022/11/10 05:30:59;;;;;;;1.50;0.55;;;19.60;61.30;;;;;;6295942;28;20036;-67
2022/11/10 05:34:00;;;;;;;1.00;0.52;;;19.60;61.20;;;;;;6294510;28;20025;-67
2022/11/10 05:37:00;;;;;;;0.60;0.50;;;19.60;61.30;;;;;;6295400;28;20063;-67
2022/11/10 05:40:01;;;;;;;0.40;0.40;;;19.60;61.30;;;;;;6295290;28;20132;-67
2022/11/10 05:43:02;;;;;;;0.68;0.50;;;19.60;61.30;;;;;;6294951;28;20032;-67
2022/11/10 05:46:02;;;;;;;2.05;0.70;;;19.60;61.20;;;;;;6294612;28;20029;-67
2022/11/10 05:49:03;;;;;;;1.00;0.50;;;19.60;61.30;;;;;;6294794;28;20482;-67
2022/11/10 05:52:04;;;;;;;1.02;0.40;;;19.60;61.20;;;;;;6294399;28;20477;-67
2022/11/10 05:55:04;;;;;;;0.68;0.57;;;19.60;61.30;;;;;;6294646;28;20134;-66
2022/11/10 05:58:06;;;;;;;0.50;0.40;;;19.60;61.20;;;;;;6294963;28;20025;-68
2022/11/10 06:01:07;;;;;;;0.63;0.47;;;19.60;61.20;;;;;;6269737;28;20032;-67
2022/11/10 06:04:07;;;;;;;0.45;0.30;;;19.60;61.20;;;;;;6288079;28;20029;-67
2022/11/10 06:07:08;;;;;;;0.45;0.38;;;19.60;61.30;;;;;;6294672;28;20105;-67
2022/11/10 06:10:08;;;;;;;0.68;0.40;;;19.60;61.30;;;;;;6293962;28;20029;-67
2022/11/10 06:13:10;;;;;;;0.43;0.32;;;19.60;61.30;;;;;;6294233;28;20087;-67
2022/11/10 06:16:11;;;;;;;0.73;0.38;;;19.60;61.20;;;;;;6294515;28;20036;-67
2022/11/10 06:19:11;;;;;;;0.55;0.47;;;19.60;61.20;;;;;;6294065;28;20505;-67
2022/11/10 06:22:12;;;;;;;0.77;0.40;;;19.60;61.20;;;;;;6294085;28;20325;-67
2022/11/10 06:25:13;;;;;;;0.70;0.55;;;19.60;61.20;;;;;;6294313;28;20119;-66
2022/11/10 06:28:13;;;;;;;0.38;0.35;;;19.60;61.20;;;;;;6294134;28;20509;-66
2022/11/10 06:31:14;;;;;;;0.60;0.40;;;19.60;61.20;;;;;;6293776;28;20029;-67
2022/11/10 06:34:15;;;;;;;0.45;0.40;;;19.60;61.30;;;;;;6293526;28;20499;-67
2022/11/10 06:37:15;;;;;;;0.77;0.40;;;19.60;61.30;;;;;;6293647;28;20025;-67
2022/11/10 06:40:16;;;;;;;0.60;0.40;;;19.60;61.20;;;;;;6293916;28;20030;-66
2022/11/10 06:43:16;;;;;;;1.00;0.43;;;19.60;61.20;;;;;;6293658;28;20060;-67
2022/11/10 06:46:17;;;;;;;0.57;0.30;;;19.60;61.30;;;;;;6292044;28;20064;-67
2022/11/10 06:49:18;;;;;;;0.90;0.40;;;19.60;61.30;;;;;;6293648;28;20044;-67
2022/11/10 06:52:18;;;;;;;0.50;0.40;;;19.60;61.20;;;;;;6293586;28;20056;-66
2022/11/10 06:55:19;;;;;;;0.80;0.47;;;19.60;61.20;;;;;;6293512;28;20036;-66
2022/11/10 06:58:20;;;;;;;1.27;0.40;;;19.60;61.30;;;;;;6294267;28;20031;-67
2022/11/10 07:01:25;;;;;;;1.00;0.40;;;19.60;61.20;;;;;;6285350;28;20502;-66
2022/11/10 07:04:25;;;;;;;0.57;0.40;;;19.60;61.20;;;;;;6281126;28;20061;-67
2022/11/10 07:07:26;;;;;;;0.65;0.43;;;19.60;61.20;;;;;;6295355;28;20101;-67
2022/11/10 07:10:26;;;;;;;0.68;0.40;;;19.60;61.30;;;;;;6294882;28;20525;-67
2022/11/10 07:13:27;;;;;;;0.52;0.32;;;19.60;61.30;;;;;;6294919;28;20042;-67
2022/11/10 07:16:28;;;;;;;0.40;0.40;;;19.60;61.30;;;;;;6294539;28;20020;-67
2022/11/10 07:19:28;;;;;;;0.55;0.43;;;19.60;61.30;;;;;;6294833;28;20491;-66
2022/11/10 07:22:29;;;;;;;0.40;0.30;;;19.60;61.30;;;;;;6295055;28;20081;-67
2022/11/10 07:25:32;;;;;;;0.73;0.40;;;19.60;61.20;;;;;;6294525;28;20083;-66
2022/11/10 07:28:32;;;;;;;3.28;0.50;;;19.60;61.20;;;;;;6285014;28;20040;-66
2022/11/10 07:31:33;;;;;;;0.90;0.40;;;19.60;61.30;;;;;;6277668;28;20056;-66
2022/11/10 07:34:33;;;;;;;0.30;0.30;;;19.60;61.20;;;;;;6289303;28;20071;-66
2022/11/10 07:37:34;;;;;;;2.30;0.40;;;19.60;61.30;;;;;;6293801;28;20025;-66
2022/11/10 07:40:35;;;;;;;0.70;0.40;;;19.60;60.90;;;;;;6291318;28;20471;-68
2022/11/10 07:43:36;;;;;;;9.77;0.60;;;19.70;61.20;;;;;;6294220;28;20357;-67
2022/11/10 07:46:36;;;;;;;1.50;0.40;;;19.60;61.20;;;;;;6294130;28;20588;-68
2022/11/10 07:49:37;;;;;;;0.85;0.43;;;19.60;61.30;;;;;;6294250;28;20055;-67
2022/11/10 07:52:37;;;;;;;2.60;0.40;;;19.60;61.30;;;;;;6294014;28;20135;-66
2022/11/10 07:55:40;;;;;;;0.60;0.32;;;19.60;61.20;;;;;;6294098;28;20016;-68
2022/11/10 07:58:40;;;;;;;0.50;0.40;;;19.60;61.20;;;;;;6293711;28;20024;-66
2022/11/10 08:01:41;;;;;;;2.85;0.38;;;19.60;61.30;;;;;;6294252;28;20525;-67
2022/11/10 08:04:42;;;;;;;1.00;0.60;;;19.60;61.20;;;;;;6294074;28;20028;-67
2022/11/10 08:07:42;;;;;;;0.80;0.40;;;19.60;61.20;;;;;;6294560;28;20044;-67
2022/11/10 08:10:43;;;;;;;0.85;0.30;;;19.60;61.20;;;;;;6293794;28;20135;-67
2022/11/10 08:13:44;;;;;;;1.38;0.40;;;19.60;61.20;;;;;;6294054;28;20078;-66
2022/11/10 08:16:45;;;;;;;2.03;0.63;;;19.60;61.20;;;;;;6273238;28;20080;-67
2022/11/10 08:19:45;;;;;;;0.70;0.50;;;19.60;61.30;;;;;;6292751;28;20032;-67
2022/11/10 08:22:46;;;;;;;1.75;0.47;;;19.60;61.30;;;;;;6292777;28;20055;-66
2022/11/10 08:25:46;;;;;;;1.80;0.40;;;19.70;61.30;;;;;;6292084;28;20028;-67
2022/11/10 08:28:47;;;;;;;9.18;0.50;;;19.60;61.20;;;;;;6314228;28;20044;-67
2022/11/10 08:31:48;;;;;;;0.45;0.38;;;19.60;61.30;;;;;;6302183;28;20547;-67
2022/11/10 08:34:48;;;;;;;3.03;0.45;;;19.60;61.20;;;;;;6292945;28;20036;-67
2022/11/10 08:37:49;;;;;;;0.98;0.50;;;19.60;61.30;;;;;;6292412;28;20052;-68
2022/11/10 08:40:50;;;;;;;0.63;0.40;;;19.60;61.30;;;;;;6292447;28;20024;-68
2022/11/10 08:43:50;;;;;;;2.00;0.50;;;19.60;61.30;;;;;;6285735;28;20544;-66
2022/11/10 08:46:51;;;;;;;1.95;0.40;;;19.60;61.30;;;;;;6290612;28;20028;-66
2022/11/10 08:49:51;;;;;;;0.85;0.40;;;19.60;61.30;;;;;;6283761;28;20521;-67
2022/11/10 08:52:52;;;;;;;0.55;0.40;;;19.60;61.30;;;;;;6291563;28;20063;-67
2022/11/10 08:55:56;;;;;;;0.93;0.60;;;19.60;61.30;;;;;;6291834;28;20054;-66
2022/11/10 08:58:57;;;;;;;1.65;0.60;;;19.60;61.30;;;;;;6292555;28;20032;-67
2022/11/10 09:01:57;;;;;;;0.70;0.40;;;19.60;61.30;;;;;;6292539;28;20438;-67
2022/11/10 09:04:58;;;;;;;0.50;0.32;;;19.60;61.30;;;;;;6292326;28;20028;-66
2022/11/10 09:07:59;;;;;;;3.33;0.43;;;19.60;61.30;;;;;;6298206;28;20036;-66
2022/11/10 09:11:05;;;;;;;0.75;0.40;;;19.60;61.30;;;;;;6296586;28;20117;-66
2022/11/10 09:14:06;;;;;;;0.55;0.40;;;19.60;61.30;;;;;;6296747;28;20055;-66
2022/11/10 09:17:06;;;;;;;1.35;0.60;;;19.70;61.40;;;;;;6287570;28;20025;-67
2022/11/10 09:20:08;;;;;;;2.78;0.65;;;19.70;61.40;;;;;;6296694;28;20020;-67
2022/11/10 09:23:11;;;;;;;1.13;0.57;;;19.60;61.30;;;;;;6296919;28;20029;-66
2022/11/10 09:26:12;;;;;;;1.23;0.60;;;19.60;61.40;;;;;;6277796;28;20504;-68
2022/11/10 09:29:12;;;;;;;2.00;0.60;;;19.70;61.50;;;;;;6296561;28;20048;-67
2022/11/10 09:32:13;;;;;;;2.22;0.80;;;19.60;61.40;;;;;;6296677;28;20020;-67
2022/11/10 09:35:13;;;;;;;0.55;0.43;;;19.70;61.50;;;;;;6296622;28;20028;-65
2022/11/10 09:38:14;;;;;;;0.80;0.65;;;19.60;61.30;;;;;;6296583;28;20110;-67
2022/11/10 09:41:15;;;;;;;1.08;0.60;;;19.70;61.50;;;;;;6287579;28;20036;-67
2022/11/10 09:44:24;;;;;;;2.40;0.80;;;19.70;61.40;;;;;;6295327;28;20099;-66
2022/11/10 09:47:54;;;;;;;1.42;0.52;;;19.70;61.40;;;;;;6296271;28;20102;-67
2022/11/10 09:51:03;;;;;;;1.42;0.50;;;19.70;61.40;;;;;;6296066;28;20049;-67
2022/11/10 09:54:21;;;;;;;1.92;0.52;;;19.70;61.40;;;;;;6296069;28;20028;-67
2022/11/10 09:57:24;;;;;;;1.42;0.45;;;19.70;61.30;;;;;;6295598;28;20137;-67
2022/11/10 10:00:28;;;;;;;2.88;0.50;;;19.70;61.40;;;;;;6295953;28;20455;-67
2022/11/10 10:03:30;;;;;;;0.88;0.50;;;19.70;61.40;;;;;;6295703;28;20028;-66
2022/11/10 10:06:37;;;;;;;0.93;0.40;;;19.70;61.50;;;;;;6295560;28;20032;-66
2022/11/10 10:10:03;;;;;;;1.60;0.60;;;19.70;61.40;;;;;;6295508;28;20039;-68
2022/11/10 10:13:03;;;;;;;2.60;0.80;;;19.60;61.30;;;;;;6295708;28;20061;-67
2022/11/10 10:16:07;;;;;;;3.80;1.00;;;19.60;61.00;;;;;;6295596;28;20036;-66
2022/11/10 10:19:37;;;;;;;3.70;1.10;;;19.60;60.80;;;;;;6295267;28;20138;-67
2022/11/10 10:23:20;;;;;;;5.80;1.27;;;19.60;61.70;;;;;;6294590;28;20499;-67
2022/11/10 10:26:25;;;;;;;12.98;1.48;;;19.60;60.40;;;;;;6270221;28;20057;-66
2022/11/10 10:29:48;;;;;;;;;;;19.60;60.10;;;;;;6289669;28;20029;-67
2022/11/10 10:32:55;;;;;;;7.25;1.60;;;19.60;60.10;;;;;;6295270;28;20052;-67
2022/11/10 10:35:57;;;;;;;6.53;1.50;;;19.60;59.90;;;;;;6295050;28;20391;-67
2022/11/10 10:39:06;;;;;;;6.82;1.48;;;19.60;59.30;;;;;;6294877;28;20495;-66
2022/11/10 10:42:30;;;;;;;7.20;1.95;;;19.60;59.60;;;;;;6295050;28;20017;-66
2022/11/10 10:45:31;;;;;;;6.75;1.60;;;19.60;59.70;;;;;;6292306;28;20387;-67
2022/11/10 10:48:31;;;;;;;4.82;1.30;;;19.60;59.90;;;;;;6294676;28;20074;-67
2022/11/10 10:51:32;;;;;;;6.38;1.42;;;19.60;59.90;;;;;;6294595;28;20056;-67
2022/11/10 10:54:35;;;;;;;4.35;1.30;;;19.60;60.00;;;;;;6294521;28;20056;-67
2022/11/10 10:57:35;;;;;;;5.72;1.50;;;19.60;60.00;;;;;;6285097;28;20503;-66
2022/11/10 11:00:44;;;;;;;4.63;1.30;;;19.60;60.20;;;;;;6294513;28;20031;-67
2022/11/10 11:03:50;;;;;;;4.47;1.58;;;19.60;60.20;;;;;;6294080;28;20036;-68
2022/11/10 11:07:18;;;;;;;3.15;1.23;;;19.60;60.40;;;;;;6294594;28;20060;-67
2022/11/10 11:10:23;;;;;;;5.57;1.25;;;19.60;60.40;;;;;;6291960;28;20490;-67
2022/11/10 11:13:28;;;;;;;8.05;1.52;;;19.60;60.50;;;;;;6294172;28;20397;-67
2022/11/10 11:16:44;;;;;;;4.55;1.25;;;19.60;60.40;;;;;;6294186;28;20032;-66
2022/11/10 11:19:46;;;;;;;3.42;1.27;;;19.60;60.10;;;;;;6294180;28;20483;-67
2022/11/10 11:23:02;;;;;;;1.88;1.08;;;19.70;60.40;;;;;;6294063;28;20036;-66
2022/11/10 11:26:25;;;;;;;2.17;1.00;;;19.70;60.60;;;;;;6293915;28;20029;-66
2022/11/10 11:29:44;;;;;;;3.28;1.10;;;19.70;60.70;;;;;;6293565;28;20434;-67
2022/11/10 11:32:51;;;;;;;3.53;1.17;;;19.70;60.60;;;;;;6293612;28;20028;-67
2022/11/10 11:36:21;;;;;;;4.53;1.27;;;19.70;60.40;;;;;;6285410;28;20025;-67
2022/11/10 11:39:37;;;;;;;5.28;1.10;;;19.70;60.60;;;;;;6293620;28;20020;-67
2022/11/10 11:42:49;;;;;;;2.95;1.20;;;19.70;60.30;;;;;;6294186;28;20107;-68
2022/11/10 11:46:24;;;;;;;4.65;1.42;;;19.70;60.40;;;;;;6293702;28;20453;-67
2022/11/10 11:49:43;;;;;;;2.17;0.98;;;19.70;60.70;;;;;;6292946;28;20380;-67
2022/11/10 11:53:39;;;;;;;4.32;1.20;;;19.70;60.70;;;;;;6293726;28;20135;-67
2022/11/10 11:56:46;;;;;;;5.43;1.00;;;19.70;60.70;;;;;;6260846;28;20040;-66
2022/11/10 12:00:02;;;;;;;3.80;1.20;;;19.70;60.70;;;;;;6277986;28;20023;-66
2022/11/10 12:03:15;;;;;;;2.90;1.10;;;19.70;60.90;;;;;;6293727;28;20103;-66
2022/11/10 12:07:04;;;;;;;4.85;1.50;;;19.70;60.90;;;;;;6293169;28;20020;-66
2022/11/10 12:10:16;;;;;;;4.78;1.30;;;19.60;60.50;;;;;;6287333;28;20568;-67
2022/11/10 12:13:33;;;;;;;3.40;1.08;;;19.60;60.30;;;;;;6293465;28;20017;-67
2022/11/10 12:16:34;;;;;;;10.35;1.50;;;19.60;60.20;;;;;;6293386;28;20042;-67
2022/11/10 12:19:41;;;;;;;7.63;1.52;;;19.60;59.80;;;;;;6292847;28;20103;-66
2022/11/10 12:23:00;;;;;;;13.02;1.83;;;19.60;59.70;;;;;;6293075;28;20028;-66
2022/11/10 12:26:15;;;;;;;13.73;1.83;;;19.60;59.70;;;;;;6292532;28;20507;-66
2022/11/10 12:29:29;;;;;;;7.45;1.85;;;19.60;59.40;;;;;;6292932;28;20033;-68
2022/11/10 12:32:55;;;;;;;11.43;1.40;;;19.60;59.10;;;;;;6292872;28;20073;-66
2022/11/10 12:35:57;;;;;;;9.75;2.03;;;19.60;59.20;;;;;;6292992;28;20448;-67
2022/11/10 12:39:11;;;;;;;6.70;1.50;;;19.70;59.60;;;;;;6292914;28;20111;-67
2022/11/10 12:42:20;;;;;;;7.05;1.70;;;19.70;59.60;;;;;;6293453;28;20024;-67
2022/11/10 12:45:31;;;;;;;7.47;2.05;;;19.60;59.70;;;;;;6297092;28;20062;-67
2022/11/10 12:48:52;;;;;;;6.72;1.52;;;19.60;59.70;;;;;;6287665;28;20025;-67
2022/11/10 12:51:57;;;;;;;5.03;1.50;;;19.70;60.10;;;;;;6296793;28;20051;-67
2022/11/10 12:54:59;;;;;;;3.58;1.63;;;19.70;60.20;;;;;;6297521;28;20059;-67
2022/11/10 12:58:02;;;;;;;8.45;1.30;;;19.60;60.30;;;;;;6297952;28;20039;-67
2022/11/10 13:01:10;;;;;;;5.03;1.67;;;19.60;60.20;;;;;;6298006;28;20095;-67
2022/11/10 13:04:14;;;;;;;3.05;1.30;;;19.60;59.90;;;;;;6297846;28;20032;-68
2022/11/10 13:07:22;;;;;;;7.05;1.45;;;19.60;60.00;;;;;;6298042;28;20111;-67
2022/11/10 13:10:26;;;;;;;6.40;2.08;;;19.60;60.10;;;;;;6297264;28;20040;-67
2022/11/10 13:13:27;;;;;;;6.30;1.73;;;19.60;60.00;;;;;;6288756;28;20077;-66
2022/11/10 13:16:37;;;;;;;4.25;1.10;;;19.60;60.30;;;;;;6296135;28;20082;-67
2022/11/10 13:19:38;;;;;;;6.20;1.40;;;19.60;60.00;;;;;;6287087;28;20052;-67
2022/11/10 13:22:42;;;;;;;2.72;0.98;;;19.70;60.30;;;;;;6276541;28;20017;-67
2022/11/10 13:25:54;;;;;;;3.63;1.02;;;19.70;60.30;;;;;;6278871;28;20036;-68
2022/11/10 13:29:00;;;;;;;3.60;1.27;;;19.70;60.00;;;;;;6282943;28;20037;-67
2022/11/10 13:32:06;;;;;;;4.18;1.40;;;19.70;60.00;;;;;;6273791;28;20091;-68
2022/11/10 13:35:29;;;;;;;5.22;0.95;;;19.80;59.80;;;;;;6271751;28;20535;-67
2022/11/10 13:38:39;;;;;;;3.72;1.17;;;19.80;59.90;;;;;;6295090;28;20025;-68
2022/11/10 13:41:53;;;;;;;5.53;1.33;;;19.70;59.90;;;;;;6287476;28;20650;-66
2022/11/10 13:45:31;;;;;;;3.88;1.15;;;19.80;60.00;;;;;;6274011;28;20554;-67
2022/11/10 13:49:16;;;;;;;5.68;1.40;;;19.80;59.60;;;;;;6293179;28;20032;-67
2022/11/10 13:52:42;;;;;;;6.68;1.40;;;19.80;59.00;;;;;;6292357;28;20044;-68
2022/11/10 13:56:17;;;;;;;4.57;1.30;;;19.80;59.40;;;;;;6300122;28;20495;-68
2022/11/10 13:59:25;;;;;;;3.75;1.20;;;19.80;59.70;;;;;;6270933;28;20119;-67
2022/11/10 14:02:32;;;;;;;5.93;1.75;;;19.70;59.80;;;;;;6281667;28;20024;-68
2022/11/10 14:05:37;;;;;;;4.75;1.38;;;19.70;59.80;;;;;;6295442;28;20077;-67
2022/11/10 14:08:42;;;;;;;3.30;1.13;;;19.70;60.20;;;;;;6295020;28;20499;-68
2022/11/10 14:11:46;;;;;;;3.55;1.38;;;19.70;59.70;;;;;;6293774;28;20025;-67
2022/11/10 14:14:55;;;;;;;5.37;1.20;;;19.70;59.40;;;;;;6295129;28;20038;-68
2022/11/10 14:17:57;;;;;;;2.88;1.20;;;19.70;59.40;;;;;;6279452;28;20271;-67
2022/11/10 14:20:59;;;;;;;3.78;1.23;;;19.70;60.00;;;;;;6294012;28;20028;-67
2022/11/10 14:24:13;;;;;;;4.15;1.10;;;19.70;59.80;;;;;;6293621;28;20437;-68
2022/11/10 14:27:22;;;;;;;4.25;1.13;;;19.70;60.20;;;;;;6294333;28;20395;-68
2022/11/10 14:30:27;;;;;;;3.78;1.38;;;19.70;60.30;;;;;;6294329;28;20020;-67
2022/11/10 14:33:28;;;;;;;4.97;1.35;;;19.70;60.40;;;;;;6294296;28;20016;-66
2022/11/10 14:36:30;;;;;;;3.63;1.60;;;19.70;60.20;;;;;;6294638;28;20510;-67
2022/11/10 14:39:34;;;;;;;5.70;1.50;;;19.60;60.10;;;;;;6294174;28;20036;-67
2022/11/10 14:42:34;;;;;;;2.83;0.90;;;19.70;60.30;;;;;;6293230;28;20055;-68
2022/11/10 14:45:37;;;;;;;4.18;1.38;;;19.70;60.30;;;;;;6294144;28;20013;-68
2022/11/10 14:48:38;;;;;;;3.20;1.08;;;19.70;60.40;;;;;;6293820;28;20125;-67
2022/11/10 14:51:39;;;;;;;3.47;1.10;;;19.70;60.40;;;;;;6293747;28;20057;-68
2022/11/10 14:54:43;;;;;;;2.92;0.90;;;19.70;60.40;;;;;;6293860;28;20052;-68
2022/11/10 14:57:56;;;;;;;5.18;1.08;;;19.70;60.30;;;;;;6294025;28;20155;-67
2022/11/10 15:00:57;;;;;;;3.25;0.90;;;19.70;60.40;;;;;;6284276;28;20137;-67
2022/11/10 15:03:58;;;;;;;3.50;0.95;;;19.70;60.50;;;;;;6293053;28;20071;-67
2022/11/10 15:06:59;;;;;;;15.48;1.17;;;19.70;60.50;;;;;;6293103;28;20025;-67
2022/11/10 15:10:12;;;;;;;12.90;1.40;;;19.70;60.30;;;;;;6291851;28;20119;-68
2022/11/10 15:13:13;;;;;;;2.70;1.00;;;19.70;60.00;;;;;;6293337;28;20025;-67
2022/11/10 15:16:24;;;;;;;5.97;1.50;;;19.70;60.30;;;;;;6293771;28;20032;-67
2022/11/10 15:19:34;;;;;;;2.67;0.88;;;19.70;60.60;;;;;;6293362;28;20453;-67
2022/11/10 15:22:35;;;;;;;3.53;1.13;;;19.70;61.50;;;;;;6293076;28;20384;-69
2022/11/10 15:25:39;;;;;;;2.33;1.10;;;19.70;61.50;;;;;;6292616;28;20066;-67
2022/11/10 15:28:41;;;;;;;2.45;1.00;;;19.60;60.50;;;;;;6293149;28;20479;-68
2022/11/10 15:31:43;;;;;;;2.53;1.02;;;19.70;60.60;;;;;;6293027;28;20032;-68
2022/11/10 15:34:44;;;;;;;2.97;1.10;;;19.70;60.70;;;;;;6293504;28;20073;-68
2022/11/10 15:38:01;;;;;;;3.13;0.98;;;19.70;60.70;;;;;;6293348;28;20364;-67
2022/11/10 15:41:10;;;;;;;2.67;1.00;;;19.70;60.50;;;;;;6275887;28;20207;-68
2022/11/10 15:44:20;;;;;;;2.58;0.85;;;19.70;60.70;;;;;;6280173;28;20028;-67
2022/11/10 15:47:21;;;;;;;2.13;1.00;;;19.70;60.60;;;;;;6292951;28;20040;-67
2022/11/10 15:50:21;;;;;;;5.05;1.08;;;19.70;60.80;;;;;;6292613;28;20138;-67
2022/11/10 15:53:29;;;;;;;2.55;1.13;;;19.70;60.70;;;;;;6292400;28;20061;-67
2022/11/10 15:56:29;;;;;;;2.13;0.90;;;19.70;60.70;;;;;;6268212;28;20024;-67
2022/11/10 15:59:30;;;;;;;1.52;0.68;;;19.70;60.70;;;;;;6280092;28;20066;-67
2022/11/10 16:02:31;;;;;;;2.17;0.98;;;19.70;60.70;;;;;;6292775;28;20024;-68
2022/11/10 16:05:31;;;;;;;2.38;0.90;;;19.70;60.70;;;;;;6292944;28;20368;-67
2022/11/10 16:08:33;;;;;;;3.75;1.10;;;19.70;60.50;;;;;;6292822;28;20039;-67
2022/11/10 16:11:37;;;;;;;2.78;1.10;;;19.70;60.30;;;;;;6291736;28;20123;-68
2022/11/10 16:14:37;;;;;;;1.67;0.90;;;19.70;61.60;;;;;;6292906;28;20033;-68
2022/11/10 16:17:38;;;;;;;1.98;0.98;;;19.70;60.80;;;;;;6294420;28;20505;-67
2022/11/10 16:20:38;;;;;;;1.77;0.85;;;19.70;60.70;;;;;;6297088;28;20103;-67
2022/11/10 16:23:40;;;;;;;1.60;0.80;;;19.70;60.80;;;;;;6296980;28;20037;-67